Time;durP1;ratioP1;P1;durP2;ratioP2;P2;SDS_P1;SDS_P2;PMS_P1;PMS_P2;Temp;Humidity;BMP_temperature;BMP_pressure;BME280_temperature;BME280_humidity;BME280_pressure;Samples;Min_cycle;Max_cycle;Signal;HPM_P1;HPM_P2
2022/10/10 00:01:25;;;;;;;5.30;2.70;;;;;15.60;101306.00;;;;5076068;28;20194;-77
2022/10/10 00:03:52;;;;;;;4.88;2.83;;;;;15.60;101298.00;;;;5082394;28;20195;-77
2022/10/10 00:06:22;;;;;;;2.83;2.60;;;;;15.60;101305.00;;;;5080054;28;20194;-77
2022/10/10 00:08:51;;;;;;;4.20;2.95;;;;;15.50;101299.00;;;;5080789;28;20280;-77
2022/10/10 00:11:21;;;;;;;5.07;2.72;;;;;15.50;101293.00;;;;5081815;28;20210;-77
2022/10/10 00:13:49;;;;;;;3.70;2.88;;;;;15.50;101297.00;;;;5081525;28;20573;-77
2022/10/10 00:16:16;;;;;;;4.95;2.83;;;;;15.50;101295.00;;;;5083094;28;20195;-77
2022/10/10 00:18:45;;;;;;;5.18;3.13;;;;;15.50;101293.00;;;;5076607;28;20187;-77
2022/10/10 00:21:12;;;;;;;2.78;2.42;;;;;15.50;101293.00;;;;5077372;28;20206;-77
2022/10/10 00:23:39;;;;;;;4.72;2.60;;;;;15.50;101295.00;;;;5076834;28;20194;-77
2022/10/10 00:26:09;;;;;;;3.88;2.80;;;;;15.40;101291.00;;;;5080908;28;20209;-77
2022/10/10 00:28:37;;;;;;;4.25;2.70;;;;;15.40;101291.00;;;;5076321;28;20238;-77
2022/10/10 00:31:05;;;;;;;4.47;2.83;;;;;15.40;101285.00;;;;5076944;28;20252;-77
2022/10/10 00:33:32;;;;;;;5.60;2.90;;;;;15.40;101282.00;;;;5076278;28;20206;-77
2022/10/10 00:35:59;;;;;;;3.10;2.80;;;;;15.40;101290.00;;;;5078944;28;20213;-77
2022/10/10 00:38:27;;;;;;;3.63;3.05;;;;;15.40;101281.00;;;;5076647;28;20202;-77
2022/10/10 00:40:56;;;;;;;4.10;2.90;;;;;15.40;101280.00;;;;5078641;28;20198;-77
2022/10/10 00:43:26;;;;;;;3.78;2.78;;;;;15.40;101278.00;;;;5076351;28;20198;-76
2022/10/10 00:45:54;;;;;;;4.25;2.85;;;;;15.40;101275.00;;;;5077588;28;20194;-76
2022/10/10 00:48:25;;;;;;;5.32;2.72;;;;;15.30;101273.00;;;;5079380;28;20320;-77
2022/10/10 00:50:57;;;;;;;3.72;2.60;;;;;15.30;101267.00;;;;5077237;28;20694;-77
2022/10/10 00:53:28;;;;;;;4.43;3.13;;;;;15.30;101266.00;;;;5076544;28;20201;-77
2022/10/10 00:55:56;;;;;;;3.40;2.83;;;;;15.30;101263.00;;;;5076190;28;20187;-77
2022/10/10 00:58:25;;;;;;;3.75;3.05;;;;;15.30;101267.00;;;;5078915;28;20194;-77
2022/10/10 01:00:53;;;;;;;5.30;3.20;;;;;15.30;101266.00;;;;5078043;28;20201;-76
2022/10/10 01:03:21;;;;;;;3.20;2.50;;;;;15.30;101266.00;;;;5076973;28;20201;-77
2022/10/10 01:05:49;;;;;;;5.28;2.85;;;;;15.30;101261.00;;;;5076606;28;20198;-77
2022/10/10 01:08:18;;;;;;;4.35;2.75;;;;;15.20;101262.00;;;;5077768;28;20709;-77
2022/10/10 01:11:03;;;;;;;6.38;2.83;;;;;15.20;101256.00;;;;5081557;28;20192;-77
2022/10/10 01:13:39;;;;;;;4.47;3.10;;;;;15.20;101256.00;;;;5076442;28;20198;-76
2022/10/10 01:16:15;;;;;;;3.97;2.80;;;;;15.20;101253.00;;;;5078354;28;20193;-76
2022/10/10 01:18:53;;;;;;;2.92;2.65;;;;;15.20;101254.00;;;;5076707;28;20206;-77
2022/10/10 01:21:27;;;;;;;3.47;2.63;;;;;15.10;101246.00;;;;5080647;28;20195;-77
2022/10/10 01:24:18;;;;;;;6.13;3.17;;;;;15.10;101241.00;;;;5078397;28;20214;-77
2022/10/10 01:27:02;;;;;;;3.40;2.85;;;;;15.10;101244.00;;;;5076706;28;20210;-77
2022/10/10 01:29:33;;;;;;;3.13;2.67;;;;;15.10;101243.00;;;;5074024;28;20238;-76
2022/10/10 01:32:07;;;;;;;2.78;2.58;;;;;15.10;101244.00;;;;5074412;28;20199;-76
2022/10/10 01:34:40;;;;;;;3.00;2.70;;;;;15.10;101246.00;;;;5075047;28;20579;-76
2022/10/10 01:37:16;;;;;;;3.65;2.83;;;;;15.10;101245.00;;;;5086071;28;20203;-76
2022/10/10 01:39:51;;;;;;;3.60;2.67;;;;;15.10;101238.00;;;;5088143;28;20582;-76
2022/10/10 01:42:24;;;;;;;3.35;2.97;;;;;15.10;101234.00;;;;5089517;28;20197;-76
2022/10/10 01:44:53;;;;;;;3.80;2.88;;;;;15.10;101236.00;;;;5079364;28;20195;-76
2022/10/10 01:47:21;;;;;;;3.35;2.90;;;;;15.10;101237.00;;;;5078197;28;20208;-76
2022/10/10 01:49:51;;;;;;;3.35;2.75;;;;;15.10;101232.00;;;;5073570;28;20291;-76
2022/10/10 01:52:30;;;;;;;5.20;3.30;;;;;15.00;101222.00;;;;5069996;28;20530;-75
2022/10/10 01:55:12;;;;;;;3.25;2.95;;;;;15.00;101232.00;;;;5075367;28;20228;-76
2022/10/10 01:57:48;;;;;;;3.20;2.55;;;;;15.00;101222.00;;;;5080993;28;20197;-76
2022/10/10 02:00:20;;;;;;;5.20;2.90;;;;;15.00;101225.00;;;;5071309;28;20661;-76
2022/10/10 02:02:55;;;;;;;3.15;2.75;;;;;15.00;101215.00;;;;5083008;28;21308;-76
2022/10/10 02:05:28;;;;;;;3.60;3.15;;;;;15.00;101220.00;;;;5083102;28;20206;-76
2022/10/10 02:08:01;;;;;;;5.05;3.13;;;;;15.00;101211.00;;;;5088376;28;20191;-76
2022/10/10 02:10:32;;;;;;;6.03;3.10;;;;;15.00;101207.00;;;;5082738;28;20313;-76
2022/10/10 02:13:01;;;;;;;3.33;3.03;;;;;15.00;101209.00;;;;5081637;28;20312;-76
2022/10/10 02:15:34;;;;;;;4.57;3.25;;;;;14.90;101206.00;;;;5087873;28;20190;-76
2022/10/10 02:18:04;;;;;;;5.47;3.22;;;;;15.00;101197.00;;;;5085532;28;20211;-76
2022/10/10 02:20:32;;;;;;;4.32;2.80;;;;;14.90;101200.00;;;;5085452;28;20206;-75
2022/10/10 02:23:00;;;;;;;3.67;3.28;;;;;14.90;101200.00;;;;5080426;28;20194;-75
2022/10/10 02:25:33;;;;;;;3.90;3.13;;;;;14.90;101199.00;;;;5075280;28;20281;-76
2022/10/10 02:28:07;;;;;;;4.57;3.75;;;;;14.90;101190.00;;;;5074670;28;20194;-76
2022/10/10 02:30:40;;;;;;;3.38;3.05;;;;;14.90;101185.00;;;;5087681;28;20233;-76
2022/10/10 02:33:08;;;;;;;3.50;2.88;;;;;14.90;101187.00;;;;5074557;28;20676;-75
2022/10/10 02:35:40;;;;;;;5.25;3.08;;;;;14.90;101183.00;;;;5083580;28;20199;-76
2022/10/10 02:38:10;;;;;;;3.83;3.00;;;;;14.90;101188.00;;;;5084640;28;20210;-76
2022/10/10 02:40:38;;;;;;;4.63;3.30;;;;;14.90;101174.00;;;;5078348;28;20668;-76
2022/10/10 02:43:07;;;;;;;3.67;2.88;;;;;14.80;101166.00;;;;5087621;28;20986;-75
2022/10/10 02:45:36;;;;;;;4.10;2.90;;;;;14.80;101170.00;;;;5078132;28;20190;-76
2022/10/10 02:48:05;;;;;;;4.68;2.78;;;;;14.80;101163.00;;;;5084835;28;20687;-76
2022/10/10 02:50:33;;;;;;;3.20;2.90;;;;;14.80;101165.00;;;;5068374;28;20232;-76
2022/10/10 02:53:00;;;;;;;3.72;3.10;;;;;14.80;101160.00;;;;5080363;28;20202;-76
2022/10/10 02:55:29;;;;;;;4.65;3.50;;;;;14.80;101164.00;;;;5073518;28;20194;-76
2022/10/10 02:57:56;;;;;;;4.75;3.20;;;;;14.80;101165.00;;;;5069703;28;20572;-76
2022/10/10 03:00:23;;;;;;;4.70;3.00;;;;;14.80;101159.00;;;;5079241;28;20202;-76
2022/10/10 03:02:52;;;;;;;6.13;3.40;;;;;14.80;101149.00;;;;5081683;28;20206;-76
2022/10/10 03:05:19;;;;;;;6.35;3.40;;;;;14.80;101152.00;;;;5086742;28;20716;-76
2022/10/10 03:07:47;;;;;;;3.88;3.28;;;;;14.80;101152.00;;;;5082218;28;20198;-76
2022/10/10 03:10:14;;;;;;;3.70;2.60;;;;;14.80;101150.00;;;;5077529;28;20249;-76
2022/10/10 03:12:41;;;;;;;5.53;3.17;;;;;14.80;101145.00;;;;5078459;28;20213;-76
2022/10/10 03:15:09;;;;;;;3.92;3.17;;;;;14.70;101144.00;;;;5082606;28;20194;-76
2022/10/10 03:17:36;;;;;;;4.43;3.50;;;;;14.80;101145.00;;;;5083145;28;20726;-75
2022/10/10 03:20:07;;;;;;;5.72;3.75;;;;;14.70;101143.00;;;;5086343;28;20205;-76
2022/10/10 03:22:34;;;;;;;5.05;3.72;;;;;14.70;101144.00;;;;5086833;28;20204;-76
2022/10/10 03:25:02;;;;;;;5.40;3.83;;;;;14.70;101146.00;;;;5084860;28;20195;-76
2022/10/10 03:27:29;;;;;;;3.47;3.15;;;;;14.70;101157.00;;;;5074397;28;20191;-76
2022/10/10 03:29:57;;;;;;;4.60;3.40;;;;;14.70;101154.00;;;;5081789;28;21066;-76
2022/10/10 03:32:24;;;;;;;3.78;3.38;;;;;14.70;101151.00;;;;5087395;28;20213;-76
2022/10/10 03:34:51;;;;;;;7.30;3.40;;;;;14.70;101156.00;;;;5083560;28;20198;-76
2022/10/10 03:37:20;;;;;;;3.42;2.75;;;;;14.70;101156.00;;;;5084033;28;20213;-76
2022/10/10 03:39:47;;;;;;;4.43;3.58;;;;;14.70;101155.00;;;;5078044;28;20657;-76
2022/10/10 03:42:15;;;;;;;4.63;3.45;;;;;14.70;101147.00;;;;5081592;28;20203;-76
2022/10/10 03:44:42;;;;;;;5.43;3.53;;;;;14.70;101153.00;;;;5071713;28;20195;-76
2022/10/10 03:47:09;;;;;;;5.07;3.78;;;;;14.70;101144.00;;;;5086071;28;20193;-76
2022/10/10 03:49:37;;;;;;;3.50;3.05;;;;;14.70;101146.00;;;;5076045;28;20211;-76
2022/10/10 03:52:04;;;;;;;4.65;3.42;;;;;14.60;101153.00;;;;5086689;28;20198;-76
2022/10/10 03:54:33;;;;;;;4.22;3.20;;;;;14.60;101151.00;;;;5086359;28;20202;-76
2022/10/10 03:57:00;;;;;;;4.47;2.92;;;;;14.60;101152.00;;;;5085992;28;20196;-76
2022/10/10 03:59:27;;;;;;;5.70;3.20;;;;;14.60;101152.00;;;;5085756;28;20198;-76
2022/10/10 04:01:55;;;;;;;3.25;2.95;;;;;14.60;101147.00;;;;5080036;28;20198;-76
2022/10/10 04:04:22;;;;;;;4.93;3.42;;;;;14.60;101140.00;;;;5074730;28;20201;-76
2022/10/10 04:06:49;;;;;;;5.25;3.20;;;;;14.60;101146.00;;;;5078005;28;20205;-76
2022/10/10 04:09:17;;;;;;;5.18;3.40;;;;;14.60;101143.00;;;;5089204;28;20703;-76
2022/10/10 04:11:45;;;;;;;3.92;3.08;;;;;14.60;101141.00;;;;5089664;28;20242;-76
2022/10/10 04:14:12;;;;;;;4.85;3.40;;;;;14.60;101143.00;;;;5070440;28;20199;-76
2022/10/10 04:16:40;;;;;;;4.18;3.40;;;;;14.60;101141.00;;;;5082402;28;20215;-76
2022/10/10 04:19:07;;;;;;;4.78;3.22;;;;;14.60;101150.00;;;;5083721;28;20190;-76
2022/10/10 04:21:35;;;;;;;5.05;2.97;;;;;14.60;101140.00;;;;5090167;28;20205;-76
2022/10/10 04:24:03;;;;;;;3.75;2.70;;;;;14.60;101145.00;;;;5084861;28;20256;-76
2022/10/10 04:26:30;;;;;;;4.43;3.13;;;;;14.50;101142.00;;;;5084141;28;20206;-76
2022/10/10 04:28:59;;;;;;;4.82;3.17;;;;;14.50;101144.00;;;;5086869;28;20436;-76
2022/10/10 04:31:26;;;;;;;3.65;2.85;;;;;14.50;101143.00;;;;5090590;28;20229;-75
2022/10/10 04:33:54;;;;;;;3.35;3.03;;;;;14.50;101142.00;;;;5080530;28;20195;-76
2022/10/10 04:36:21;;;;;;;4.88;3.78;;;;;14.50;101144.00;;;;5084959;28;20194;-76
2022/10/10 04:38:49;;;;;;;4.25;3.13;;;;;14.50;101140.00;;;;5087464;28;20199;-76
2022/10/10 04:41:16;;;;;;;6.43;3.63;;;;;14.50;101140.00;;;;5080255;28;20206;-76
2022/10/10 04:43:43;;;;;;;8.20;3.05;;;;;14.50;101136.00;;;;5091031;28;20191;-75
2022/10/10 04:46:12;;;;;;;4.32;3.35;;;;;14.50;101138.00;;;;5089369;28;20186;-76
2022/10/10 04:48:39;;;;;;;4.82;3.42;;;;;14.50;101135.00;;;;5087970;28;20574;-76
2022/10/10 04:51:07;;;;;;;5.00;3.30;;;;;14.50;101128.00;;;;5086815;28;20221;-76
2022/10/10 04:53:34;;;;;;;3.45;3.05;;;;;14.50;101133.00;;;;5070134;28;21560;-76
2022/10/10 04:56:03;;;;;;;4.30;3.45;;;;;14.50;101139.00;;;;5085247;28;20202;-76
2022/10/10 04:58:30;;;;;;;6.20;3.38;;;;;14.50;101137.00;;;;5084891;28;20578;-76
2022/10/10 05:00:58;;;;;;;5.35;3.00;;;;;14.50;101140.00;;;;5086339;28;20194;-76
2022/10/10 05:03:26;;;;;;;5.28;3.30;;;;;14.50;101133.00;;;;5090268;28;20293;-76
2022/10/10 05:05:54;;;;;;;4.00;3.42;;;;;14.50;101131.00;;;;5076907;28;20213;-76
2022/10/10 05:08:21;;;;;;;7.20;3.83;;;;;14.50;101137.00;;;;5085567;28;20195;-76
2022/10/10 05:10:51;;;;;;;4.63;3.47;;;;;14.50;101131.00;;;;5087738;28;20336;-76
2022/10/10 05:13:18;;;;;;;5.10;2.83;;;;;14.50;101129.00;;;;5070955;28;20194;-76
2022/10/10 05:15:49;;;;;;;5.78;3.45;;;;;14.50;101130.00;;;;5076994;28;20190;-76
2022/10/10 05:18:17;;;;;;;4.70;3.15;;;;;14.50;101127.00;;;;5085216;28;20218;-76
2022/10/10 05:20:46;;;;;;;4.20;3.13;;;;;14.40;101126.00;;;;5087949;28;20198;-76
2022/10/10 05:23:14;;;;;;;4.47;3.28;;;;;14.50;101130.00;;;;5089061;28;20202;-76
2022/10/10 05:25:44;;;;;;;4.35;3.33;;;;;14.40;101129.00;;;;5088123;28;20209;-76
2022/10/10 05:28:11;;;;;;;4.10;3.40;;;;;14.40;101128.00;;;;5088029;28;20206;-76
2022/10/10 05:30:38;;;;;;;6.63;3.33;;;;;14.40;101122.00;;;;5075595;28;20238;-76
2022/10/10 05:33:06;;;;;;;4.10;3.20;;;;;14.40;101123.00;;;;5086172;28;20194;-76
2022/10/10 05:35:33;;;;;;;6.75;3.42;;;;;14.40;101131.00;;;;5077357;28;20194;-76
2022/10/10 05:38:04;;;;;;;4.72;3.20;;;;;14.40;101127.00;;;;5081581;28;20210;-76
2022/10/10 05:40:31;;;;;;;5.28;3.70;;;;;14.40;101126.00;;;;5080611;28;20307;-76
2022/10/10 05:42:58;;;;;;;4.30;3.30;;;;;14.40;101129.00;;;;5069697;28;20205;-76
2022/10/10 05:45:25;;;;;;;5.55;3.78;;;;;14.40;101121.00;;;;5080874;28;20195;-76
2022/10/10 05:47:53;;;;;;;5.05;3.60;;;;;14.40;101131.00;;;;5084530;28;20566;-76
2022/10/10 05:50:29;;;;;;;5.80;3.80;;;;;14.30;101131.00;;;;5079254;28;20257;-76
2022/10/10 05:52:57;;;;;;;3.55;3.22;;;;;14.40;101131.00;;;;5076403;28;20195;-76
2022/10/10 05:55:26;;;;;;;4.80;3.47;;;;;14.30;101133.00;;;;5084211;28;20209;-76
2022/10/10 05:57:53;;;;;;;3.70;3.30;;;;;14.30;101132.00;;;;5084325;28;20671;-76
2022/10/10 06:00:20;;;;;;;3.85;3.15;;;;;14.30;101145.00;;;;5080949;28;20225;-76
2022/10/10 06:02:48;;;;;;;5.40;4.20;;;;;14.30;101149.00;;;;5084169;28;20206;-76
2022/10/10 06:05:15;;;;;;;4.30;3.47;;;;;14.30;101145.00;;;;5075942;28;20263;-77
2022/10/10 06:07:42;;;;;;;5.25;2.80;;;;;14.30;101147.00;;;;5081660;28;20201;-75
2022/10/10 06:10:11;;;;;;;8.85;3.28;;;;;14.30;101140.00;;;;5078658;28;20223;-75
2022/10/10 06:12:39;;;;;;;5.13;3.47;;;;;14.30;101145.00;;;;5077251;28;20830;-76
2022/10/10 06:15:08;;;;;;;4.78;3.70;;;;;14.40;101139.00;;;;5088535;28;20213;-76
2022/10/10 06:17:35;;;;;;;14.00;3.33;;;;;14.40;101140.00;;;;5077378;28;20214;-76
2022/10/10 06:20:03;;;;;;;6.80;3.78;;;;;14.40;101145.00;;;;5078259;28;20199;-75
2022/10/10 06:22:30;;;;;;;6.00;3.28;;;;;14.40;101146.00;;;;5071394;28;20198;-76
2022/10/10 06:24:57;;;;;;;4.57;3.83;;;;;14.40;101139.00;;;;5074766;28;20201;-76
2022/10/10 06:27:25;;;;;;;4.57;3.53;;;;;14.40;101148.00;;;;5085850;28;20194;-76
2022/10/10 06:29:53;;;;;;;4.15;3.65;;;;;14.40;101147.00;;;;5063402;28;20230;-76
2022/10/10 06:32:21;;;;;;;6.28;3.97;;;;;14.40;101151.00;;;;5077409;28;21039;-75
2022/10/10 06:34:48;;;;;;;5.78;3.28;;;;;14.40;101150.00;;;;5085867;28;20592;-76
2022/10/10 06:37:15;;;;;;;5.95;3.47;;;;;14.50;101158.00;;;;5080312;28;20194;-76
2022/10/10 06:39:43;;;;;;;4.85;3.65;;;;;14.50;101152.00;;;;5079363;28;20209;-75
2022/10/10 06:42:10;;;;;;;4.22;2.97;;;;;14.50;101153.00;;;;5078079;28;20206;-75
2022/10/10 06:44:37;;;;;;;4.53;3.20;;;;;14.50;101152.00;;;;5083534;28;20198;-75
2022/10/10 06:47:07;;;;;;;4.38;3.17;;;;;14.60;101151.00;;;;5078373;28;20201;-75
2022/10/10 06:49:34;;;;;;;4.28;3.70;;;;;14.60;101156.00;;;;5081358;28;20209;-75
2022/10/10 06:52:04;;;;;;;5.75;3.42;;;;;14.70;101158.00;;;;5088121;28;20198;-75
2022/10/10 06:54:31;;;;;;;4.50;3.33;;;;;14.70;101164.00;;;;5083264;28;20198;-75
2022/10/10 06:56:58;;;;;;;6.38;3.95;;;;;14.80;101173.00;;;;5078483;28;20205;-75
2022/10/10 06:59:26;;;;;;;3.70;3.05;;;;;14.80;101164.00;;;;5083469;28;20229;-75
2022/10/10 07:01:53;;;;;;;6.30;3.80;;;;;14.90;101165.00;;;;5083035;28;20580;-75
2022/10/10 07:04:22;;;;;;;4.40;3.60;;;;;14.90;101174.00;;;;5076288;28;20198;-75
2022/10/10 07:06:49;;;;;;;5.20;3.75;;;;;15.00;101172.00;;;;5079171;28;20946;-76
2022/10/10 07:09:17;;;;;;;6.55;3.30;;;;;15.00;101165.00;;;;5078185;28;20240;-75
2022/10/10 07:11:44;;;;;;;5.30;3.83;;;;;15.10;101168.00;;;;5080674;28;20802;-75
2022/10/10 07:14:12;;;;;;;3.85;3.25;;;;;15.10;101168.00;;;;5080739;28;20195;-75
2022/10/10 07:16:40;;;;;;;5.95;4.20;;;;;15.20;101170.00;;;;5071382;28;20609;-76
2022/10/10 07:19:07;;;;;;;6.13;3.33;;;;;15.30;101170.00;;;;5080164;28;20198;-76
2022/10/10 07:21:36;;;;;;;3.92;3.45;;;;;15.30;101172.00;;;;5079764;28;20194;-76
2022/10/10 07:24:03;;;;;;;5.25;3.58;;;;;15.40;101178.00;;;;5080523;28;20206;-75
2022/10/10 07:26:35;;;;;;;3.95;3.55;;;;;15.50;101177.00;;;;5084218;28;20202;-75
2022/10/10 07:29:03;;;;;;;5.55;3.20;;;;;15.50;101180.00;;;;5077803;28;20241;-75
2022/10/10 07:31:31;;;;;;;7.82;3.50;;;;;15.60;101183.00;;;;5081351;28;20229;-75
2022/10/10 07:33:58;;;;;;;4.18;3.00;;;;;15.70;101183.00;;;;5084557;28;20201;-76
2022/10/10 07:36:25;;;;;;;4.57;3.28;;;;;15.80;101185.00;;;;5084350;28;20215;-76
2022/10/10 07:38:54;;;;;;;3.72;3.15;;;;;15.80;101178.00;;;;5084408;28;20194;-75
2022/10/10 07:41:22;;;;;;;6.75;3.75;;;;;16.00;101179.00;;;;5084637;28;20194;-76
2022/10/10 07:43:55;;;;;;;4.15;3.38;;;;;16.00;101177.00;;;;5076908;28;20203;-75
2022/10/10 07:46:23;;;;;;;4.05;3.30;;;;;16.10;101182.00;;;;5078268;28;21079;-75
2022/10/10 07:48:50;;;;;;;4.57;3.50;;;;;16.20;101186.00;;;;5081736;28;20206;-75
2022/10/10 07:51:18;;;;;;;5.53;3.47;;;;;16.30;101187.00;;;;5085410;28;20226;-75
2022/10/10 07:53:45;;;;;;;4.85;3.40;;;;;16.30;101186.00;;;;5083157;28;20202;-75
2022/10/10 07:56:14;;;;;;;5.32;3.00;;;;;16.40;101194.00;;;;5082019;28;20191;-75
2022/10/10 07:58:41;;;;;;;4.28;3.38;;;;;16.50;101202.00;;;;5081412;28;20315;-74
2022/10/10 08:01:11;;;;;;;3.40;3.03;;;;;16.50;101203.00;;;;5084075;28;20202;-75
2022/10/10 08:03:39;;;;;;;5.40;3.30;;;;;16.60;101211.00;;;;5080329;28;20221;-74
2022/10/10 08:06:09;;;;;;;4.60;3.22;;;;;16.60;101210.00;;;;5081768;28;20198;-74
2022/10/10 08:08:37;;;;;;;8.75;3.40;;;;;16.60;101207.00;;;;5083030;28;20186;-74
2022/10/10 08:11:05;;;;;;;4.32;3.28;;;;;16.70;101203.00;;;;5079339;28;20218;-74
2022/10/10 08:13:35;;;;;;;6.18;3.60;;;;;16.70;101201.00;;;;5081400;28;20201;-75
2022/10/10 08:16:03;;;;;;;4.45;3.45;;;;;16.80;101202.00;;;;5085661;28;20278;-75
2022/10/10 08:18:30;;;;;;;5.43;3.70;;;;;16.90;101205.00;;;;5070253;28;20261;-76
2022/10/10 08:21:02;;;;;;;6.90;3.25;;;;;17.00;101207.00;;;;5087345;28;20194;-76
2022/10/10 08:23:29;;;;;;;3.92;2.88;;;;;17.10;101208.00;;;;5078540;28;20774;-76
2022/10/10 08:25:59;;;;;;;4.10;2.97;;;;;17.20;101212.00;;;;5079762;28;20205;-75
2022/10/10 08:28:26;;;;;;;7.43;3.42;;;;;17.30;101206.00;;;;5075456;28;20195;-76
2022/10/10 08:30:55;;;;;;;3.90;2.90;;;;;17.40;101215.00;;;;5078601;28;20233;-76
2022/10/10 08:33:25;;;;;;;3.78;3.13;;;;;17.50;101215.00;;;;5081926;28;20213;-76
2022/10/10 08:35:52;;;;;;;5.05;3.35;;;;;17.60;101208.00;;;;5084398;28;20198;-76
2022/10/10 08:38:20;;;;;;;3.95;3.13;;;;;17.80;101215.00;;;;5084499;28;20194;-76
2022/10/10 08:40:49;;;;;;;4.10;2.83;;;;;17.90;101220.00;;;;5075972;28;20198;-76
2022/10/10 08:43:22;;;;;;;8.00;3.10;;;;;18.00;101214.00;;;;5079647;28;20205;-77
2022/10/10 08:45:52;;;;;;;7.97;3.25;;;;;18.20;101214.00;;;;5076728;28;20194;-78
2022/10/10 08:48:25;;;;;;;7.20;3.65;;;;;18.40;101223.00;;;;5086885;28;20198;-77
2022/10/10 08:50:58;;;;;;;3.67;2.53;;;;;18.50;101227.00;;;;5088343;28;20226;-76
2022/10/10 08:53:31;;;;;;;4.47;2.70;;;;;18.60;101229.00;;;;5079570;28;20191;-76
2022/10/10 08:56:00;;;;;;;7.60;2.75;;;;;18.70;101238.00;;;;5088838;28;20191;-76
2022/10/10 08:58:30;;;;;;;6.20;2.63;;;;;18.90;101240.00;;;;5073788;28;20214;-76
2022/10/10 09:01:09;;;;;;;4.47;2.88;;;;;18.90;101232.00;;;;5080594;28;20202;-77
2022/10/10 09:03:43;;;;;;;3.70;2.72;;;;;19.00;101231.00;;;;5088036;28;20970;-77
2022/10/10 09:06:36;;;;;;;5.63;2.80;;;;;19.10;101231.00;;;;5073628;28;20197;-77
2022/10/10 09:09:14;;;;;;;3.75;2.65;;;;;19.20;101240.00;;;;5084354;28;20203;-76
2022/10/10 09:11:53;;;;;;;7.63;3.20;;;;;19.30;101242.00;;;;5088785;28;20222;-77
2022/10/10 09:14:33;;;;;;;5.72;3.00;;;;;19.30;101245.00;;;;5086511;28;20210;-78
2022/10/10 09:17:05;;;;;;;6.90;3.00;;;;;19.40;101246.00;;;;5076826;28;20214;-77
2022/10/10 09:19:47;;;;;;;4.47;2.58;;;;;19.40;101244.00;;;;5083840;28;20198;-77
2022/10/10 09:22:19;;;;;;;6.57;2.78;;;;;19.40;101229.00;;;;5084840;28;20204;-77
2022/10/10 09:24:51;;;;;;;3.70;2.88;;;;;19.50;101238.00;;;;5086761;28;20190;-78
2022/10/10 09:27:24;;;;;;;5.15;2.95;;;;;19.50;101239.00;;;;5089526;28;20301;-78
2022/10/10 09:29:55;;;;;;;5.65;3.72;;;;;19.50;101243.00;;;;5084659;28;20230;-79
2022/10/10 09:32:27;;;;;;;3.72;2.90;;;;;19.50;101242.00;;;;5083853;28;20230;-79
2022/10/10 09:35:01;;;;;;;3.97;2.58;;;;;19.50;101250.00;;;;5083019;28;20202;-78
2022/10/10 09:37:33;;;;;;;5.20;2.70;;;;;19.60;101246.00;;;;5081760;28;20203;-79
2022/10/10 09:40:07;;;;;;;5.30;2.83;;;;;19.60;101252.00;;;;5079135;28;20199;-78
2022/10/10 09:42:37;;;;;;;3.50;2.80;;;;;19.70;101257.00;;;;5077212;28;20200;-78
2022/10/10 09:45:16;;;;;;;4.22;3.03;;;;;19.60;101255.00;;;;5078328;28;20656;-77
2022/10/10 09:47:43;;;;;;;12.60;3.05;;;;;19.80;101259.00;;;;5085493;28;20671;-78
2022/10/10 09:50:15;;;;;;;5.38;3.28;;;;;19.80;101258.00;;;;5082968;28;20564;-78
2022/10/10 09:52:43;;;;;;;6.32;3.20;;;;;19.80;101260.00;;;;5079174;28;20222;-77
2022/10/10 09:55:23;;;;;;;5.18;2.90;;;;;19.80;101268.00;;;;5078761;28;20652;-78
2022/10/10 09:57:53;;;;;;;6.65;3.10;;;;;19.90;101271.00;;;;5074238;28;20225;-78
2022/10/10 10:00:34;;;;;;;3.80;2.85;;;;;19.90;101271.00;;;;5075182;28;20202;-79
2022/10/10 10:03:10;;;;;;;4.65;3.03;;;;;19.90;101273.00;;;;5075408;28;20198;-79
2022/10/10 10:05:42;;;;;;;6.35;3.42;;;;;20.00;101274.00;;;;5073145;28;20199;-79
2022/10/10 10:08:21;;;;;;;6.72;3.35;;;;;20.00;101283.00;;;;5077865;28;20203;-78
2022/10/10 10:10:49;;;;;;;5.57;3.50;;;;;20.20;101276.00;;;;5075526;28;20195;-78
2022/10/10 10:13:24;;;;;;;7.35;3.30;;;;;20.20;101273.00;;;;5076405;28;20206;-77
2022/10/10 10:15:58;;;;;;;7.38;3.28;;;;;20.30;101275.00;;;;5077833;28;20644;-78
2022/10/10 10:18:27;;;;;;;3.13;2.83;;;;;20.40;101284.00;;;;5077653;28;20217;-77
2022/10/10 10:21:15;;;;;;;7.55;3.35;;;;;20.40;101294.00;;;;5080282;28;20721;-76
2022/10/10 10:23:48;;;;;;;7.63;3.10;;;;;20.50;101308.00;;;;5077334;28;20199;-76
2022/10/10 10:26:19;;;;;;;5.72;3.17;;;;;20.60;101306.00;;;;5077686;28;20202;-76
2022/10/10 10:28:49;;;;;;;4.22;2.78;;;;;20.60;101320.00;;;;5076065;28;20223;-77
2022/10/10 10:31:29;;;;;;;4.35;2.92;;;;;20.60;101308.00;;;;5074484;28;20233;-77
2022/10/10 10:34:17;;;;;;;7.05;2.65;;;;;20.60;101315.00;;;;5077452;28;20198;-77
2022/10/10 10:36:54;;;;;;;5.63;3.42;;;;;20.70;101310.00;;;;5076405;28;20282;-77
2022/10/10 10:39:37;;;;;;;5.43;3.03;;;;;20.70;101306.00;;;;5077486;28;21214;-76
2022/10/10 10:42:15;;;;;;;4.80;2.78;;;;;20.80;101309.00;;;;5077188;28;20198;-76
2022/10/10 10:44:48;;;;;;;5.40;2.97;;;;;20.80;101306.00;;;;5075128;28;20194;-75
2022/10/10 10:47:39;;;;;;;9.20;3.72;;;;;20.80;101312.00;;;;5082522;28;20198;-76
2022/10/10 10:50:26;;;;;;;6.25;3.00;;;;;21.00;101305.00;;;;5069312;28;20194;-75
2022/10/10 10:52:59;;;;;;;4.32;2.78;;;;;21.10;101308.00;;;;5074509;28;20225;-75
2022/10/10 10:55:33;;;;;;;3.78;2.85;;;;;21.10;101313.00;;;;5073674;28;20201;-75
2022/10/10 10:58:22;;;;;;;5.15;2.90;;;;;21.10;101316.00;;;;5079195;28;20201;-75
2022/10/10 11:00:56;;;;;;;4.47;2.88;;;;;21.20;101336.00;;;;5073560;28;20905;-75
2022/10/10 11:03:34;;;;;;;5.10;3.15;;;;;21.20;101328.00;;;;5078985;28;20321;-75
2022/10/10 11:06:11;;;;;;;4.90;3.00;;;;;21.20;101339.00;;;;5087966;28;20548;-74
2022/10/10 11:08:57;;;;;;;5.22;2.80;;;;;21.20;101342.00;;;;5075967;28;20198;-75
2022/10/10 11:11:37;;;;;;;6.60;2.90;;;;;21.20;101344.00;;;;5081506;28;20755;-75
2022/10/10 11:14:15;;;;;;;3.42;2.72;;;;;21.30;101345.00;;;;5083856;28;20194;-75
2022/10/10 11:16:45;;;;;;;7.22;3.08;;;;;21.30;101349.00;;;;5082857;28;20198;-75
2022/10/10 11:19:24;;;;;;;6.32;2.67;;;;;21.30;101351.00;;;;5090021;28;20186;-75
2022/10/10 11:21:57;;;;;;;5.43;3.47;;;;;21.30;101345.00;;;;5081309;28;20284;-75
2022/10/10 11:24:35;;;;;;;5.25;2.70;;;;;21.30;101346.00;;;;5084657;28;20187;-75
2022/10/10 11:27:07;;;;;;;6.93;3.00;;;;;21.30;101346.00;;;;5084818;28;20194;-75
2022/10/10 11:29:40;;;;;;;5.75;3.05;;;;;21.30;101349.00;;;;5074628;28;20225;-75
2022/10/10 11:32:11;;;;;;;3.47;3.10;;;;;21.40;101351.00;;;;5083836;28;20222;-76
2022/10/10 11:34:45;;;;;;;6.70;2.97;;;;;21.40;101362.00;;;;5086890;28;20205;-75
2022/10/10 11:37:19;;;;;;;4.93;2.42;;;;;21.50;101355.00;;;;5085307;28;20198;-75
2022/10/10 11:39:55;;;;;;;8.13;3.13;;;;;21.50;101360.00;;;;5082378;28;20200;-75
2022/10/10 11:42:25;;;;;;;5.60;2.78;;;;;21.60;101355.00;;;;5085006;28;20205;-76
2022/10/10 11:44:59;;;;;;;4.10;2.95;;;;;21.60;101344.00;;;;5083419;28;20972;-75
2022/10/10 11:47:32;;;;;;;7.93;3.50;;;;;21.70;101356.00;;;;5083489;28;20202;-75
2022/10/10 11:50:05;;;;;;;4.78;3.28;;;;;21.70;101347.00;;;;5074608;28;20214;-76
2022/10/10 11:52:39;;;;;;;7.90;3.45;;;;;21.70;101347.00;;;;5079685;28;20214;-76
2022/10/10 11:55:18;;;;;;;4.95;2.42;;;;;21.70;101350.00;;;;5076307;28;20645;-75
2022/10/10 11:57:52;;;;;;;4.22;3.13;;;;;21.70;101350.00;;;;5082792;28;20195;-75
2022/10/10 12:00:20;;;;;;;17.40;3.30;;;;;21.80;101350.00;;;;5087535;28;20201;-76
2022/10/10 12:02:48;;;;;;;6.28;2.53;;;;;21.80;101352.00;;;;5088255;28;20195;-76
2022/10/10 12:05:23;;;;;;;4.05;2.85;;;;;21.70;101360.00;;;;5078579;28;20203;-76
2022/10/10 12:08:07;;;;;;;6.90;3.10;;;;;21.70;101360.00;;;;5081427;28;20198;-76
2022/10/10 12:10:42;;;;;;;4.63;2.40;;;;;21.80;101359.00;;;;5082121;28;20205;-76
2022/10/10 12:13:25;;;;;;;4.22;2.53;;;;;21.70;101364.00;;;;5080249;28;20214;-76
2022/10/10 12:15:56;;;;;;;5.32;3.40;;;;;21.80;101379.00;;;;5073596;28;20556;-76
2022/10/10 12:18:26;;;;;;;5.85;2.85;;;;;21.80;101377.00;;;;5080024;28;20223;-76
2022/10/10 12:21:08;;;;;;;5.82;3.08;;;;;21.70;101370.00;;;;5071189;28;20190;-76
2022/10/10 12:23:37;;;;;;;3.60;2.92;;;;;21.70;101374.00;;;;5089899;28;21034;-76
2022/10/10 12:26:06;;;;;;;6.55;3.08;;;;;21.70;101376.00;;;;5089630;28;20202;-76